Time;durP1;ratioP1;P1;durP2;ratioP2;P2;SDS_P1;SDS_P2;PMS_P1;PMS_P2;Temp;Humidity;BMP_temperature;BMP_pressure;BME280_temperature;BME280_humidity;BME280_pressure;Samples;Min_cycle;Max_cycle;Signal;HPM_P1;HPM_P2
2022/06/05 00:01:36;;;;;;;9.03;6.80;;;;;;;;;;5135290;27;20561;-70
2022/06/05 00:04:08;;;;;;;6.90;4.40;;;;;;;;;;5135421;27;20518;-71
2022/06/05 00:06:38;;;;;;;4.77;4.17;;;;;;;;;;5135235;27;20432;-71
2022/06/05 00:09:20;;;;;;;5.30;4.80;;;;;;;;;;5135616;27;20475;-71
2022/06/05 00:11:50;;;;;;;6.57;5.30;;;;;;;;;;5135201;27;20467;-71
2022/06/05 00:14:17;;;;;;;6.53;4.70;;;;;;;;;;5134842;27;20521;-70
2022/06/05 00:16:46;;;;;;;5.17;4.67;;;;;;;;;;5135026;27;20443;-70
2022/06/05 00:19:13;;;;;;;7.20;5.00;;;;;;;;;;5135343;27;20482;-71
2022/06/05 00:21:40;;;;;;;6.70;5.20;;;;;;;;;;5134613;27;20469;-71
2022/06/05 00:24:08;;;;;;;8.13;7.03;;;;;;;;;;5135413;27;20471;-70
2022/06/05 00:26:40;;;;;;;6.57;5.97;;;;;;;;;;5134561;27;20448;-70
2022/06/05 00:29:15;;;;;;;6.53;5.83;;;;;;;;;;5135744;27;20457;-70
2022/06/05 00:31:48;;;;;;;10.13;5.10;;;;;;;;;;5134529;27;20426;-71
2022/06/05 00:34:16;;;;;;;5.53;4.30;;;;;;;;;;5135036;27;20506;-70
2022/06/05 00:36:51;;;;;;;5.53;4.57;;;;;;;;;;5134671;27;20446;-71
2022/06/05 00:39:20;;;;;;;5.63;4.27;;;;;;;;;;5134493;27;20424;-70
2022/06/05 00:41:52;;;;;;;8.53;5.30;;;;;;;;;;5134235;27;20573;-71
2022/06/05 00:44:22;;;;;;;5.00;4.50;;;;;;;;;;5135144;27;20785;-71
2022/06/05 00:46:51;;;;;;;6.40;4.50;;;;;;;;;;5134570;27;20529;-70
2022/06/05 00:49:21;;;;;;;6.67;5.10;;;;;;;;;;5134577;27;20483;-72
2022/06/05 00:51:48;;;;;;;5.40;4.90;;;;;;;;;;5134569;27;20473;-71
2022/06/05 00:54:15;;;;;;;5.80;4.80;;;;;;;;;;5134842;27;20521;-71
2022/06/05 00:56:43;;;;;;;5.70;5.17;;;;;;;;;;5134371;27;20465;-71
2022/06/05 00:59:12;;;;;;;5.83;5.33;;;;;;;;;;5134536;27;20489;-71
2022/06/05 01:01:40;;;;;;;6.47;5.57;;;;;;;;;;5134062;27;20847;-71
2022/06/05 01:04:07;;;;;;;6.57;5.40;;;;;;;;;;5134448;28;20474;-70
2022/06/05 01:06:36;;;;;;;9.10;4.80;;;;;;;;;;5134401;28;20435;-70
2022/06/05 01:09:05;;;;;;;5.77;5.27;;;;;;;;;;5134158;28;20997;-71
2022/06/05 01:11:36;;;;;;;5.00;4.57;;;;;;;;;;5134273;28;20997;-71
2022/06/05 01:14:09;;;;;;;5.33;4.90;;;;;;;;;;5134074;28;20484;-71
2022/06/05 01:16:40;;;;;;;7.40;4.97;;;;;;;;;;5134525;28;20437;-70
2022/06/05 01:19:17;;;;;;;5.20;4.70;;;;;;;;;;5134098;28;20439;-71
2022/06/05 01:22:06;;;;;;;11.10;4.80;;;;;;;;;;5134297;28;20502;-70
2022/06/05 01:24:43;;;;;;;10.40;5.97;;;;;;;;;;5133987;28;20473;-69
2022/06/05 01:27:13;;;;;;;5.77;5.23;;;;;;;;;;5134221;28;20429;-71
2022/06/05 01:29:42;;;;;;;5.93;4.97;;;;;;;;;;5134188;28;20495;-70
2022/06/05 01:32:10;;;;;;;5.67;5.17;;;;;;;;;;5134122;28;20447;-71
2022/06/05 01:34:41;;;;;;;5.80;4.47;;;;;;;;;;5134510;28;20849;-70
2022/06/05 01:37:11;;;;;;;5.93;5.43;;;;;;;;;;5133997;28;20442;-69
2022/06/05 01:39:41;;;;;;;5.10;4.70;;;;;;;;;;5134818;28;20435;-71
2022/06/05 01:42:11;;;;;;;6.83;5.50;;;;;;;;;;5134014;28;20471;-70
2022/06/05 01:44:41;;;;;;;11.07;5.87;;;;;;;;;;5133745;28;20530;-70
2022/06/05 01:47:15;;;;;;;7.37;5.13;;;;;;;;;;5133720;28;20433;-69
2022/06/05 01:49:46;;;;;;;7.10;5.00;;;;;;;;;;5134185;27;20871;-70
2022/06/05 01:52:16;;;;;;;9.13;4.70;;;;;;;;;;5134373;28;20832;-69
2022/06/05 01:54:45;;;;;;;9.10;4.77;;;;;;;;;;5134788;28;20434;-69
2022/06/05 01:57:14;;;;;;;5.70;4.70;;;;;;;;;;5133904;28;20795;-69
2022/06/05 01:59:45;;;;;;;5.07;4.57;;;;;;;;;;5133644;28;20935;-69
2022/06/05 02:02:15;;;;;;;5.27;4.77;;;;;;;;;;5134097;28;20474;-70
2022/06/05 02:04:44;;;;;;;5.33;4.83;;;;;;;;;;5133887;28;20437;-70
2022/06/05 02:07:13;;;;;;;7.40;5.97;;;;;;;;;;5133490;28;20449;-69
2022/06/05 02:09:42;;;;;;;6.83;4.87;;;;;;;;;;5136436;27;20532;-70
2022/06/05 02:12:10;;;;;;;6.43;5.70;;;;;;;;;;5137139;27;20461;-69
2022/06/05 02:14:42;;;;;;;5.90;5.13;;;;;;;;;;5137512;27;20429;-69
2022/06/05 02:17:11;;;;;;;7.93;5.80;;;;;;;;;;5137660;27;20441;-69
2022/06/05 02:19:39;;;;;;;6.10;5.50;;;;;;;;;;5137833;27;20450;-69
2022/06/05 02:22:08;;;;;;;6.07;5.27;;;;;;;;;;5137273;27;20476;-69
2022/06/05 02:24:35;;;;;;;6.93;5.83;;;;;;;;;;5137038;27;20438;-70
2022/06/05 02:27:05;;;;;;;6.80;5.20;;;;;;;;;;5137283;27;20561;-70
2022/06/05 02:29:32;;;;;;;5.93;5.37;;;;;;;;;;5137242;27;20449;-70
2022/06/05 02:32:14;;;;;;;6.23;5.60;;;;;;;;;;5137732;27;20912;-69
2022/06/05 02:34:46;;;;;;;6.33;5.80;;;;;;;;;;5137238;27;20464;-69
2022/06/05 02:37:19;;;;;;;5.27;4.77;;;;;;;;;;5136960;27;20925;-69
2022/06/05 02:39:51;;;;;;;6.20;5.63;;;;;;;;;;5137184;27;20484;-69
2022/06/05 02:42:24;;;;;;;6.37;5.53;;;;;;;;;;5137112;27;20468;-70
2022/06/05 02:44:55;;;;;;;6.67;6.07;;;;;;;;;;5137169;27;20533;-70
2022/06/05 02:47:28;;;;;;;5.90;5.40;;;;;;;;;;5137251;27;20853;-70
2022/06/05 02:49:57;;;;;;;5.80;5.30;;;;;;;;;;5137219;27;20478;-70
2022/06/05 02:52:25;;;;;;;7.73;5.90;;;;;;;;;;5136748;27;20452;-69
2022/06/05 02:54:57;;;;;;;8.60;6.03;;;;;;;;;;5137253;27;20867;-69
2022/06/05 02:57:24;;;;;;;9.33;6.00;;;;;;;;;;5137283;27;20501;-69
2022/06/05 02:59:51;;;;;;;17.33;6.40;;;;;;;;;;5136345;27;20432;-69
2022/06/05 03:05:05;;;;;;;6.67;6.17;;;;;;;;;;5136457;27;20426;-69
2022/06/05 03:07:32;;;;;;;7.07;6.37;;;;;;;;;;5136104;27;20521;-69
2022/06/05 03:09:59;;;;;;;6.27;5.40;;;;;;;;;;5136140;27;20532;-70
2022/06/05 03:12:27;;;;;;;9.63;6.60;;;;;;;;;;5136328;27;20534;-69
2022/06/05 03:14:56;;;;;;;7.03;6.40;;;;;;;;;;5136068;27;20932;-69
2022/06/05 03:17:23;;;;;;;7.00;6.30;;;;;;;;;;5135845;27;20440;-69
2022/06/05 03:19:50;;;;;;;7.23;6.57;;;;;;;;;;5135942;27;20445;-70
2022/06/05 03:22:19;;;;;;;8.67;7.13;;;;;;;;;;5136182;27;20476;-69
2022/06/05 03:24:46;;;;;;;7.90;7.10;;;;;;;;;;5136097;27;20471;-69
2022/06/05 03:27:13;;;;;;;11.17;6.60;;;;;;;;;;5135850;27;20529;-69
2022/06/05 03:29:41;;;;;;;7.30;6.50;;;;;;;;;;5135750;27;20528;-69
2022/06/05 03:32:08;;;;;;;7.73;6.43;;;;;;;;;;5136130;27;20887;-69
2022/06/05 03:34:35;;;;;;;7.50;6.70;;;;;;;;;;5135898;27;20542;-69
2022/06/05 03:37:04;;;;;;;8.60;7.80;;;;;;;;;;5135586;27;20529;-70
2022/06/05 03:39:33;;;;;;;6.90;6.30;;;;;;;;;;5135523;27;20432;-72
2022/06/05 03:42:00;;;;;;;6.80;6.27;;;;;;;;;;5135986;27;20535;-72
2022/06/05 03:44:28;;;;;;;7.63;6.60;;;;;;;;;;5135389;27;20441;-72
2022/06/05 03:46:55;;;;;;;7.90;7.07;;;;;;;;;;5135454;27;20945;-72
2022/06/05 03:49:22;;;;;;;6.80;6.20;;;;;;;;;;5123929;27;20561;-72
2022/06/05 03:51:49;;;;;;;7.73;6.90;;;;;;;;;;5115096;28;20440;-72
2022/06/05 03:54:17;;;;;;;8.63;6.43;;;;;;;;;;5115178;28;20445;-72
2022/06/05 03:56:45;;;;;;;7.03;6.37;;;;;;;;;;5115026;28;20518;-72
2022/06/05 03:59:12;;;;;;;7.83;7.03;;;;;;;;;;5115213;28;20536;-71
2022/06/05 04:01:40;;;;;;;7.27;6.57;;;;;;;;;;5114514;28;20439;-71
2022/06/05 04:04:07;;;;;;;7.17;6.40;;;;;;;;;;5114930;28;20540;-71
2022/06/05 04:06:34;;;;;;;7.23;6.53;;;;;;;;;;5114733;28;20442;-72
2022/06/05 04:09:02;;;;;;;8.63;7.10;;;;;;;;;;5114868;28;20484;-73
2022/06/05 04:11:30;;;;;;;9.93;7.10;;;;;;;;;;5114874;28;20439;-72
2022/06/05 04:13:59;;;;;;;11.03;5.87;;;;;;;;;;5114565;28;20857;-72
2022/06/05 04:16:27;;;;;;;9.13;6.40;;;;;;;;;;5114627;28;20531;-72
2022/06/05 04:18:55;;;;;;;7.13;6.40;;;;;;;;;;5121224;27;20446;-72
2022/06/05 04:21:23;;;;;;;8.17;5.90;;;;;;;;;;5135124;27;20524;-72
2022/06/05 04:23:51;;;;;;;6.30;5.70;;;;;;;;;;5134539;27;21011;-72
2022/06/05 04:26:20;;;;;;;7.17;6.50;;;;;;;;;;5135165;27;20875;-72
2022/06/05 04:28:47;;;;;;;7.10;6.40;;;;;;;;;;5134563;27;20469;-72
2022/06/05 04:31:21;;;;;;;7.03;6.37;;;;;;;;;;5134309;27;20534;-72
2022/06/05 04:33:48;;;;;;;7.20;6.60;;;;;;;;;;5134551;27;20430;-72
2022/06/05 04:36:16;;;;;;;12.17;7.03;;;;;;;;;;5134878;27;20968;-73
2022/06/05 04:38:43;;;;;;;6.57;6.07;;;;;;;;;;5134408;27;20469;-73
2022/06/05 04:41:11;;;;;;;6.97;6.37;;;;;;;;;;5134419;27;20533;-72
2022/06/05 04:43:38;;;;;;;7.63;6.60;;;;;;;;;;5134234;27;20478;-72
2022/06/05 04:46:06;;;;;;;8.47;6.37;;;;;;;;;;5134393;27;20441;-73
2022/06/05 04:48:35;;;;;;;6.20;5.60;;;;;;;;;;5134298;27;21037;-73
2022/06/05 04:51:05;;;;;;;7.27;6.17;;;;;;;;;;5134503;27;20430;-72
2022/06/05 04:53:32;;;;;;;7.27;6.57;;;;;;;;;;5134554;27;20484;-73
2022/06/05 04:55:59;;;;;;;6.90;6.33;;;;;;;;;;5134527;27;20446;-72
2022/06/05 04:58:26;;;;;;;10.77;7.50;;;;;;;;;;5134225;27;20436;-72
2022/06/05 05:00:54;;;;;;;6.60;6.10;;;;;;;;;;5134485;27;20446;-72
2022/06/05 05:03:21;;;;;;;7.13;5.77;;;;;;;;;;5134334;27;20477;-72
2022/06/05 05:05:49;;;;;;;6.10;5.60;;;;;;;;;;5134378;27;20472;-72
2022/06/05 05:08:17;;;;;;;6.83;6.23;;;;;;;;;;5134781;28;20536;-72
2022/06/05 05:10:45;;;;;;;7.27;6.23;;;;;;;;;;5134375;28;20513;-72
2022/06/05 05:13:12;;;;;;;6.73;6.03;;;;;;;;;;5134023;28;20537;-72
2022/06/05 05:15:39;;;;;;;6.83;6.33;;;;;;;;;;5134299;28;20469;-73
2022/06/05 05:18:06;;;;;;;6.80;6.20;;;;;;;;;;5134488;28;20808;-73
2022/06/05 05:20:33;;;;;;;7.67;6.27;;;;;;;;;;5113387;28;20527;-73
2022/06/05 05:23:02;;;;;;;6.73;6.10;;;;;;;;;;5113666;28;20482;-72
2022/06/05 05:25:29;;;;;;;6.90;6.40;;;;;;;;;;5113295;28;20446;-70
2022/06/05 05:27:56;;;;;;;7.80;6.07;;;;;;;;;;5113974;28;20525;-69
2022/06/05 05:30:24;;;;;;;6.50;6.00;;;;;;;;;;5113591;28;20435;-69
2022/06/05 05:32:51;;;;;;;6.83;6.20;;;;;;;;;;5113943;28;20549;-68
2022/06/05 05:35:20;;;;;;;6.93;6.37;;;;;;;;;;5113217;28;20443;-70
2022/06/05 05:37:47;;;;;;;6.80;6.30;;;;;;;;;;5113282;28;20934;-69
2022/06/05 05:43:01;;;;;;;7.00;6.30;;;;;;;;;;5114636;28;20560;-72
2022/06/05 05:45:28;;;;;;;6.60;6.10;;;;;;;;;;5117177;28;20439;-72
2022/06/05 05:47:55;;;;;;;8.23;6.03;;;;;;;;;;5117085;28;20447;-72
2022/06/05 05:50:23;;;;;;;6.10;5.60;;;;;;;;;;5136143;27;20519;-72
2022/06/05 05:52:50;;;;;;;6.30;5.80;;;;;;;;;;5138429;27;20798;-72
2022/06/05 05:55:19;;;;;;;7.17;6.57;;;;;;;;;;5137624;27;20533;-71
2022/06/05 05:57:47;;;;;;;6.17;5.77;;;;;;;;;;5137763;27;20431;-71
2022/06/05 06:00:16;;;;;;;7.20;6.47;;;;;;;;;;5137811;27;20521;-72
2022/06/05 06:02:44;;;;;;;6.30;5.80;;;;;;;;;;5137396;27;20997;-72
2022/06/05 06:05:13;;;;;;;6.70;6.10;;;;;;;;;;5137659;27;20444;-72
2022/06/05 06:07:40;;;;;;;7.20;6.60;;;;;;;;;;5138242;27;20525;-72
2022/06/05 06:10:08;;;;;;;6.37;5.60;;;;;;;;;;5137558;27;20440;-72
2022/06/05 06:12:37;;;;;;;7.43;6.83;;;;;;;;;;5137529;27;20985;-72
2022/06/05 06:15:05;;;;;;;6.03;5.53;;;;;;;;;;5137496;27;20467;-72
2022/06/05 06:17:32;;;;;;;7.20;6.60;;;;;;;;;;5137194;27;20503;-72
2022/06/05 06:19:59;;;;;;;7.23;6.60;;;;;;;;;;5137374;27;20503;-71
2022/06/05 06:22:26;;;;;;;7.40;6.70;;;;;;;;;;5137429;27;20584;-73
2022/06/05 06:24:54;;;;;;;6.40;5.90;;;;;;;;;;5137622;27;20535;-72
2022/06/05 06:27:21;;;;;;;6.70;6.20;;;;;;;;;;5136919;27;20449;-72
2022/06/05 06:29:49;;;;;;;6.00;5.60;;;;;;;;;;5136972;27;20442;-71
2022/06/05 06:32:17;;;;;;;7.27;6.63;;;;;;;;;;5137153;27;20526;-71
2022/06/05 06:34:44;;;;;;;6.60;5.80;;;;;;;;;;5136862;27;20491;-71
2022/06/05 06:37:11;;;;;;;7.33;6.63;;;;;;;;;;5137110;27;20543;-72
2022/06/05 06:39:38;;;;;;;6.47;5.97;;;;;;;;;;5136776;27;20959;-71
2022/06/05 06:42:06;;;;;;;6.97;6.27;;;;;;;;;;5136739;27;20523;-72
2022/06/05 06:44:33;;;;;;;11.30;6.70;;;;;;;;;;5136929;27;20534;-71
2022/06/05 06:47:01;;;;;;;7.17;6.57;;;;;;;;;;5136899;27;20443;-72
2022/06/05 06:49:30;;;;;;;6.70;6.10;;;;;;;;;;5136197;27;20566;-71
2022/06/05 06:51:58;;;;;;;7.70;6.90;;;;;;;;;;5136792;27;20791;-71
2022/06/05 06:54:25;;;;;;;7.27;6.73;;;;;;;;;;5135768;27;20448;-72
2022/06/05 06:56:52;;;;;;;7.70;7.00;;;;;;;;;;5136391;27;20474;-71
2022/06/05 06:59:20;;;;;;;8.20;7.40;;;;;;;;;;5135725;27;20547;-71
2022/06/05 07:01:47;;;;;;;6.87;6.37;;;;;;;;;;5136782;27;20523;-72
2022/06/05 07:04:17;;;;;;;7.47;6.77;;;;;;;;;;5136903;27;20508;-72
2022/06/05 07:06:44;;;;;;;8.23;7.63;;;;;;;;;;5136199;27;20497;-71
2022/06/05 07:09:14;;;;;;;7.90;7.30;;;;;;;;;;5136534;27;20441;-72
2022/06/05 07:11:41;;;;;;;7.50;6.80;;;;;;;;;;5137111;27;20802;-72
2022/06/05 07:14:09;;;;;;;9.00;8.20;;;;;;;;;;5136023;27;20462;-71
2022/06/05 07:16:36;;;;;;;8.30;7.50;;;;;;;;;;5135965;27;20497;-71
2022/06/05 07:19:03;;;;;;;8.57;7.70;;;;;;;;;;5135921;27;21020;-71
2022/06/05 07:21:32;;;;;;;8.17;7.57;;;;;;;;;;5135854;27;20973;-71
2022/06/05 07:24:00;;;;;;;7.73;7.00;;;;;;;;;;5135762;27;20480;-71
2022/06/05 07:26:28;;;;;;;7.30;6.60;;;;;;;;;;5135878;27;20552;-73
2022/06/05 07:28:56;;;;;;;7.73;7.17;;;;;;;;;;5135809;27;20520;-70
2022/06/05 07:31:26;;;;;;;7.40;6.80;;;;;;;;;;5135979;27;20448;-71
2022/06/05 07:33:53;;;;;;;8.30;7.50;;;;;;;;;;5136446;27;20469;-71
2022/06/05 07:36:21;;;;;;;8.10;7.30;;;;;;;;;;5135908;27;20944;-71
2022/06/05 07:38:50;;;;;;;7.63;7.03;;;;;;;;;;5135612;27;20460;-71
2022/06/05 07:41:19;;;;;;;8.33;7.53;;;;;;;;;;5135725;27;20444;-71
2022/06/05 07:43:46;;;;;;;8.57;7.87;;;;;;;;;;5135757;27;20556;-71
2022/06/05 07:46:13;;;;;;;8.60;8.00;;;;;;;;;;5135398;27;20524;-70
2022/06/05 07:48:41;;;;;;;9.00;7.50;;;;;;;;;;5135585;27;20820;-71
2022/06/05 07:56:40;;;;;;;8.03;7.37;;;;;;;;;;5124389;27;20922;-71
2022/06/05 07:59:08;;;;;;;8.07;7.40;;;;;;;;;;5135104;27;20815;-72
2022/06/05 08:01:35;;;;;;;8.87;8.13;;;;;;;;;;5135725;27;20468;-72
2022/06/05 08:04:02;;;;;;;8.70;8.00;;;;;;;;;;5135292;27;20563;-72
2022/06/05 08:06:30;;;;;;;11.40;7.70;;;;;;;;;;5133977;27;20437;-71
2022/06/05 08:08:59;;;;;;;8.57;7.87;;;;;;;;;;5135282;27;20477;-71
2022/06/05 08:11:26;;;;;;;8.67;7.97;;;;;;;;;;5134855;27;20437;-71
2022/06/05 08:13:53;;;;;;;9.77;8.20;;;;;;;;;;5135244;27;20444;-71
2022/06/05 08:16:21;;;;;;;8.40;7.70;;;;;;;;;;5134880;27;20540;-71
2022/06/05 08:18:50;;;;;;;7.90;7.20;;;;;;;;;;5134783;27;20450;-71
2022/06/05 08:21:18;;;;;;;8.00;7.30;;;;;;;;;;5135069;27;20824;-71
2022/06/05 08:23:45;;;;;;;8.00;7.30;;;;;;;;;;5134927;27;20473;-72
2022/06/05 08:26:14;;;;;;;8.67;7.97;;;;;;;;;;5134693;27;20972;-71
2022/06/05 08:28:41;;;;;;;7.77;7.17;;;;;;;;;;5134442;27;20528;-70
2022/06/05 08:31:08;;;;;;;8.03;7.30;;;;;;;;;;5134616;27;20441;-71
2022/06/05 08:33:36;;;;;;;8.80;8.00;;;;;;;;;;5134944;27;20525;-72
2022/06/05 08:36:03;;;;;;;8.43;7.63;;;;;;;;;;5134561;27;20530;-72
2022/06/05 08:41:29;;;;;;;9.10;8.40;;;;;;;;;;5134634;27;20882;-71
2022/06/05 08:44:01;;;;;;;9.00;8.20;;;;;;;;;;5134308;27;20962;-72
2022/06/05 08:46:31;;;;;;;8.73;8.03;;;;;;;;;;5134752;27;20434;-72
2022/06/05 08:49:02;;;;;;;8.30;7.60;;;;;;;;;;5133937;27;20505;-73
2022/06/05 08:51:39;;;;;;;8.67;7.97;;;;;;;;;;5134985;27;20533;-72
2022/06/05 08:54:08;;;;;;;8.80;8.10;;;;;;;;;;5134753;27;20465;-73
2022/06/05 08:56:39;;;;;;;10.63;7.60;;;;;;;;;;5134256;27;21006;-72
2022/06/05 08:59:12;;;;;;;8.13;7.53;;;;;;;;;;5134639;27;20471;-72
2022/06/05 09:01:41;;;;;;;9.40;8.10;;;;;;;;;;5134882;27;20866;-72
2022/06/05 09:04:20;;;;;;;8.40;7.70;;;;;;;;;;5134386;27;20880;-72
2022/06/05 09:06:49;;;;;;;11.23;7.70;;;;;;;;;;5134584;28;20418;-71
2022/06/05 09:09:20;;;;;;;8.70;7.87;;;;;;;;;;5134332;28;20474;-71
2022/06/05 09:11:50;;;;;;;8.73;8.00;;;;;;;;;;5135067;28;20434;-71
2022/06/05 09:14:22;;;;;;;8.10;7.40;;;;;;;;;;5134407;28;20535;-71
2022/06/05 09:16:50;;;;;;;9.17;8.47;;;;;;;;;;5134152;28;20519;-72
2022/06/05 09:19:20;;;;;;;11.63;7.37;;;;;;;;;;5137571;27;20528;-71
2022/06/05 09:21:51;;;;;;;8.37;7.63;;;;;;;;;;5138580;27;20435;-72
2022/06/05 09:24:23;;;;;;;9.30;8.50;;;;;;;;;;5138674;27;20877;-71
2022/06/05 09:26:56;;;;;;;8.17;7.40;;;;;;;;;;5138725;27;20535;-71
2022/06/05 09:29:28;;;;;;;10.00;7.97;;;;;;;;;;5138503;27;20508;-72
2022/06/05 09:32:02;;;;;;;9.23;7.80;;;;;;;;;;5138880;27;20463;-71
2022/06/05 09:34:31;;;;;;;9.77;8.60;;;;;;;;;;5138048;27;20513;-71
2022/06/05 09:37:02;;;;;;;9.27;7.83;;;;;;;;;;5138314;27;20504;-72
2022/06/05 09:39:32;;;;;;;9.77;8.10;;;;;;;;;;5138162;27;20530;-72
2022/06/05 09:42:12;;;;;;;9.40;7.77;;;;;;;;;;5138096;27;20505;-72
2022/06/05 09:44:45;;;;;;;9.70;8.70;;;;;;;;;;5138247;27;20553;-72
2022/06/05 09:47:15;;;;;;;9.50;8.53;;;;;;;;;;5137808;27;20904;-72
2022/06/05 09:49:45;;;;;;;8.57;7.80;;;;;;;;;;5138099;27;20467;-71
2022/06/05 09:52:14;;;;;;;8.60;7.90;;;;;;;;;;5138410;27;20447;-71
2022/06/05 09:54:44;;;;;;;8.77;7.50;;;;;;;;;;5137484;27;20484;-71
2022/06/05 10:00:03;;;;;;;7.83;7.13;;;;;;;;;;5137588;27;20901;-70
2022/06/05 10:02:31;;;;;;;8.60;8.00;;;;;;;;;;5137431;27;20994;-70
2022/06/05 10:04:58;;;;;;;9.00;8.30;;;;;;;;;;5137255;27;21031;-70
2022/06/05 10:07:29;;;;;;;9.60;7.80;;;;;;;;;;5137427;27;20436;-69
2022/06/05 10:09:56;;;;;;;8.70;7.90;;;;;;;;;;5137301;27;20417;-69
2022/06/05 10:12:28;;;;;;;11.83;9.53;;;;;;;;;;5137874;27;20511;-69
2022/06/05 10:14:59;;;;;;;7.97;7.37;;;;;;;;;;5137393;27;20426;-69
2022/06/05 10:17:44;;;;;;;7.30;6.70;;;;;;;;;;5138339;27;20436;-70
2022/06/05 10:20:33;;;;;;;7.07;6.20;;;;;;;;;;5136464;27;20836;-70
2022/06/05 10:23:04;;;;;;;6.87;6.23;;;;;;;;;;5137616;27;20454;-70
2022/06/05 10:25:34;;;;;;;6.70;6.20;;;;;;;;;;5117983;27;20549;-70
2022/06/05 10:28:05;;;;;;;7.43;6.73;;;;;;;;;;5117110;28;20442;-70
2022/06/05 10:30:34;;;;;;;6.93;6.33;;;;;;;;;;5115572;28;20484;-70
2022/06/05 10:33:03;;;;;;;9.67;7.00;;;;;;;;;;5116596;28;20446;-70
2022/06/05 10:35:37;;;;;;;7.90;7.20;;;;;;;;;;5116290;28;20951;-69
2022/06/05 10:38:10;;;;;;;7.57;7.03;;;;;;;;;;5116958;28;20432;-69
2022/06/05 10:40:43;;;;;;;7.57;6.73;;;;;;;;;;5116565;28;20861;-69
2022/06/05 10:43:17;;;;;;;6.60;6.00;;;;;;;;;;5116760;28;20902;-69
2022/06/05 10:45:49;;;;;;;7.57;6.97;;;;;;;;;;5115920;28;20464;-70
2022/06/05 10:48:28;;;;;;;6.47;5.90;;;;;;;;;;5116499;28;20894;-70
2022/06/05 10:50:58;;;;;;;7.23;6.23;;;;;;;;;;5115954;28;20531;-70
2022/06/05 10:53:29;;;;;;;7.10;6.50;;;;;;;;;;5115822;28;20519;-70
2022/06/05 10:56:01;;;;;;;7.50;6.90;;;;;;;;;;5116255;28;20512;-70
2022/06/05 10:58:39;;;;;;;6.83;6.33;;;;;;;;;;5116483;28;20530;-69
2022/06/05 11:01:07;;;;;;;8.07;6.70;;;;;;;;;;5116075;28;20429;-70
2022/06/05 11:03:43;;;;;;;6.73;6.20;;;;;;;;;;5116088;28;20443;-70
2022/06/05 11:06:24;;;;;;;6.70;6.20;;;;;;;;;;5115872;28;20501;-69
2022/06/05 11:08:57;;;;;;;6.57;6.07;;;;;;;;;;5116038;28;20424;-69
2022/06/05 11:14:19;;;;;;;6.80;6.20;;;;;;;;;;5115861;28;20397;-71
2022/06/05 11:16:50;;;;;;;7.83;7.03;;;;;;;;;;5115960;28;20498;-71
2022/06/05 11:19:21;;;;;;;9.77;7.07;;;;;;;;;;5115861;28;20546;-72
2022/06/05 11:21:50;;;;;;;8.87;5.83;;;;;;;;;;5115504;28;20511;-72
2022/06/05 11:24:21;;;;;;;7.43;6.83;;;;;;;;;;5115521;28;20880;-71
2022/06/05 11:26:53;;;;;;;7.33;6.63;;;;;;;;;;5115726;28;20436;-70
2022/06/05 11:29:24;;;;;;;7.27;6.67;;;;;;;;;;5115192;28;20435;-71
2022/06/05 11:31:58;;;;;;;7.50;6.80;;;;;;;;;;5115620;28;20428;-71
2022/06/05 11:34:31;;;;;;;9.20;7.03;;;;;;;;;;5115222;28;20419;-70
2022/06/05 11:37:12;;;;;;;7.40;6.80;;;;;;;;;;5115918;28;20428;-70
2022/06/05 11:39:44;;;;;;;7.63;7.03;;;;;;;;;;5115526;28;20461;-70
2022/06/05 11:42:17;;;;;;;7.67;7.03;;;;;;;;;;5114843;28;20512;-70
2022/06/05 11:44:48;;;;;;;7.87;7.27;;;;;;;;;;5115344;28;20469;-70
2022/06/05 11:47:30;;;;;;;8.00;7.40;;;;;;;;;;5115001;28;20434;-70
2022/06/05 11:50:02;;;;;;;8.10;7.40;;;;;;;;;;5115117;28;20494;-70
2022/06/05 11:52:32;;;;;;;7.87;7.37;;;;;;;;;;5115176;28;20459;-71
2022/06/05 11:55:04;;;;;;;7.50;6.77;;;;;;;;;;5114680;28;20440;-69
2022/06/05 11:57:35;;;;;;;7.37;6.70;;;;;;;;;;5115154;28;20792;-71
2022/06/05 12:00:07;;;;;;;7.00;6.50;;;;;;;;;;5115030;28;20428;-70
2022/06/05 12:02:55;;;;;;;6.70;6.20;;;;;;;;;;5114693;28;20432;-71
2022/06/05 12:05:27;;;;;;;6.60;6.10;;;;;;;;;;5115315;28;20961;-70
2022/06/05 12:08:00;;;;;;;6.57;5.97;;;;;;;;;;5114918;28;20423;-70
2022/06/05 12:10:29;;;;;;;6.20;5.80;;;;;;;;;;5115103;28;20538;-71
2022/06/05 12:13:02;;;;;;;7.03;6.43;;;;;;;;;;5115161;28;20542;-70
2022/06/05 12:15:33;;;;;;;6.43;5.93;;;;;;;;;;5114330;28;20904;-71
2022/06/05 12:18:03;;;;;;;7.40;6.90;;;;;;;;;;5114887;28;20453;-71
2022/06/05 12:20:36;;;;;;;11.53;10.53;;;;;;;;;;5114176;28;20439;-70
2022/06/05 12:23:06;;;;;;;10.20;9.40;;;;;;;;;;5114333;28;20435;-70
2022/06/05 12:25:39;;;;;;;7.80;7.20;;;;;;;;;;5114099;28;20553;-69
2022/06/05 12:28:09;;;;;;;8.07;7.47;;;;;;;;;;5114209;28;20514;-69
2022/06/05 12:30:39;;;;;;;7.90;7.30;;;;;;;;;;5114205;28;20522;-67
2022/06/05 12:33:12;;;;;;;8.50;7.90;;;;;;;;;;5114651;28;20442;-67
2022/06/05 12:35:40;;;;;;;8.73;7.90;;;;;;;;;;5119984;27;20915;-68
2022/06/05 12:38:16;;;;;;;8.57;7.63;;;;;;;;;;5134544;27;20529;-69
2022/06/05 12:40:48;;;;;;;8.60;7.90;;;;;;;;;;5134876;27;20497;-68
2022/06/05 12:43:21;;;;;;;8.83;8.10;;;;;;;;;;5134551;27;20437;-69
2022/06/05 12:45:53;;;;;;;7.53;6.93;;;;;;;;;;5135206;27;20468;-69
2022/06/05 12:48:23;;;;;;;7.00;6.40;;;;;;;;;;5134050;27;20476;-68
2022/06/05 12:50:56;;;;;;;7.57;7.00;;;;;;;;;;5134653;27;20429;-68
2022/06/05 12:53:31;;;;;;;8.13;7.43;;;;;;;;;;5133832;27;20966;-69
2022/06/05 12:56:01;;;;;;;9.50;8.60;;;;;;;;;;5134271;27;20637;-69
2022/06/05 12:58:32;;;;;;;9.53;8.73;;;;;;;;;;5134661;27;20524;-69
2022/06/05 13:01:03;;;;;;;9.57;8.77;;;;;;;;;;5135147;27;20453;-69
2022/06/05 13:03:35;;;;;;;9.80;8.80;;;;;;;;;;5134285;27;20430;-69
2022/06/05 13:06:05;;;;;;;10.30;9.40;;;;;;;;;;5134336;27;20517;-68
2022/06/05 13:08:36;;;;;;;10.60;9.70;;;;;;;;;;5134140;27;20469;-69
2022/06/05 13:11:08;;;;;;;9.53;8.70;;;;;;;;;;5134475;28;20820;-69
2022/06/05 13:13:41;;;;;;;10.40;9.60;;;;;;;;;;5134122;28;20424;-69
2022/06/05 13:16:16;;;;;;;10.47;9.57;;;;;;;;;;5134343;28;20471;-70
2022/06/05 13:18:47;;;;;;;10.47;9.57;;;;;;;;;;5134359;28;20455;-69
2022/06/05 13:21:17;;;;;;;10.93;9.93;;;;;;;;;;5134931;28;20452;-69
2022/06/05 13:23:47;;;;;;;10.17;9.30;;;;;;;;;;5134082;28;20880;-69
2022/06/05 13:26:17;;;;;;;10.90;10.00;;;;;;;;;;5134701;28;20469;-69
2022/06/05 13:28:48;;;;;;;10.80;10.00;;;;;;;;;;5134232;28;20442;-69
2022/06/05 13:31:27;;;;;;;10.83;10.03;;;;;;;;;;5134232;28;20433;-69
2022/06/05 13:33:56;;;;;;;10.60;9.80;;;;;;;;;;5134443;28;20513;-70
2022/06/05 13:36:29;;;;;;;13.50;12.30;;;;;;;;;;5133724;28;20446;-69
2022/06/05 13:38:58;;;;;;;12.33;11.43;;;;;;;;;;5134066;28;20467;-70
2022/06/05 13:41:28;;;;;;;11.57;10.67;;;;;;;;;;5134059;28;20436;-69
2022/06/05 13:43:58;;;;;;;10.73;9.93;;;;;;;;;;5134166;28;20445;-70
2022/06/05 13:46:29;;;;;;;11.50;10.60;;;;;;;;;;5133672;28;21012;-69
2022/06/05 13:49:00;;;;;;;11.30;10.33;;;;;;;;;;5134344;27;20552;-69
2022/06/05 13:51:29;;;;;;;11.70;10.70;;;;;;;;;;5134063;28;20461;-69
2022/06/05 13:53:59;;;;;;;11.43;10.30;;;;;;;;;;5134316;28;20479;-70
2022/06/05 13:56:30;;;;;;;12.10;10.90;;;;;;;;;;5134443;28;20429;-69
2022/06/05 13:59:00;;;;;;;17.40;15.37;;;;;;;;;;5133876;28;20989;-70
2022/06/05 14:01:31;;;;;;;11.63;10.73;;;;;;;;;;5134620;28;20450;-69
2022/06/05 14:04:00;;;;;;;16.83;12.23;;;;;;;;;;5135171;27;20534;-70
2022/06/05 14:06:37;;;;;;;37.87;12.83;;;;;;;;;;5137152;27;20556;-69
2022/06/05 14:09:05;;;;;;;13.70;11.30;;;;;;;;;;5138379;27;20483;-70
2022/06/05 14:11:34;;;;;;;13.70;12.30;;;;;;;;;;5137250;27;20469;-69
2022/06/05 14:14:03;;;;;;;12.67;11.67;;;;;;;;;;5137753;27;20460;-69
2022/06/05 14:16:33;;;;;;;11.97;11.03;;;;;;;;;;5136510;27;20502;-69
2022/06/05 14:19:03;;;;;;;15.40;14.00;;;;;;;;;;5137689;27;20493;-69
2022/06/05 14:21:33;;;;;;;12.73;11.63;;;;;;;;;;5137868;27;20469;-70
2022/06/05 14:24:04;;;;;;;11.70;10.80;;;;;;;;;;5137447;27;20524;-69
2022/06/05 14:26:36;;;;;;;13.60;12.40;;;;;;;;;;5137126;27;20512;-70
2022/06/05 14:29:05;;;;;;;10.77;9.83;;;;;;;;;;5137357;27;20430;-70
2022/06/05 14:31:35;;;;;;;12.20;11.00;;;;;;;;;;5136952;27;20956;-69
2022/06/05 14:34:04;;;;;;;11.93;10.93;;;;;;;;;;5136796;27;20446;-70
2022/06/05 14:36:36;;;;;;;10.30;9.50;;;;;;;;;;5137380;27;20864;-70
2022/06/05 14:39:05;;;;;;;11.07;10.27;;;;;;;;;;5136973;27;20448;-69
2022/06/05 14:41:34;;;;;;;10.97;9.97;;;;;;;;;;5136764;27;20525;-70
2022/06/05 14:44:03;;;;;;;10.10;9.40;;;;;;;;;;5136926;27;20521;-70
2022/06/05 14:46:37;;;;;;;11.63;10.63;;;;;;;;;;5136684;27;20580;-70
2022/06/05 14:49:09;;;;;;;10.83;10.00;;;;;;;;;;5136782;27;20971;-70
2022/06/05 14:51:41;;;;;;;11.50;10.60;;;;;;;;;;5137123;27;20786;-70
2022/06/05 14:54:14;;;;;;;10.70;9.80;;;;;;;;;;5136841;27;20466;-71
2022/06/05 14:59:32;;;;;;;10.90;10.00;;;;;;;;;;5136494;27;20433;-70
2022/06/05 15:02:06;;;;;;;11.70;10.50;;;;;;;;;;5137090;27;20448;-70
2022/06/05 15:04:36;;;;;;;10.83;10.03;;;;;;;;;;5136787;27;20433;-70
2022/06/05 15:07:05;;;;;;;10.73;9.83;;;;;;;;;;5137187;27;20902;-70
2022/06/05 15:09:36;;;;;;;11.87;10.67;;;;;;;;;;5136819;27;20441;-70
2022/06/05 15:12:05;;;;;;;11.23;10.27;;;;;;;;;;5136648;27;20856;-72
2022/06/05 15:14:40;;;;;;;10.77;10.00;;;;;;;;;;5136025;27;20524;-70
2022/06/05 15:17:17;;;;;;;11.40;10.40;;;;;;;;;;5135811;27;20869;-70